sensor_id;sensor_type;location;lat;lon;timestamp;P1;durP1;ratioP1;P2;durP2;ratioP2
9807;SDS011;4943;52.550;13.462;2023-08-20T00:00:39;13.45;;;12.13;;
9807;SDS011;4943;52.550;13.462;2023-08-20T00:03:10;13.27;;;11.88;;
9807;SDS011;4943;52.550;13.462;2023-08-20T00:05:39;13.82;;;11.98;;
9807;SDS011;4943;52.550;13.462;2023-08-20T00:08:08;16.80;;;15.02;;
9807;SDS011;4943;52.550;13.462;2023-08-20T00:10:36;16.67;;;13.68;;
9807;SDS011;4943;52.550;13.462;2023-08-20T00:13:04;16.10;;;14.40;;
9807;SDS011;4943;52.550;13.462;2023-08-20T00:15:32;13.90;;;12.40;;
9807;SDS011;4943;52.550;13.462;2023-08-20T00:18:02;13.95;;;12.43;;
9807;SDS011;4943;52.550;13.462;2023-08-20T00:20:31;16.02;;;13.82;;
9807;SDS011;4943;52.550;13.462;2023-08-20T00:23:00;25.40;;;20.35;;
9807;SDS011;4943;52.550;13.462;2023-08-20T00:25:29;16.98;;;13.65;;
9807;SDS011;4943;52.550;13.462;2023-08-20T00:27:57;14.43;;;12.82;;
9807;SDS011;4943;52.550;13.462;2023-08-20T00:30:25;16.38;;;13.57;;
9807;SDS011;4943;52.550;13.462;2023-08-20T00:32:53;14.48;;;12.13;;
9807;SDS011;4943;52.550;13.462;2023-08-20T00:35:23;14.10;;;12.60;;
9807;SDS011;4943;52.550;13.462;2023-08-20T00:37:51;14.60;;;12.60;;
9807;SDS011;4943;52.550;13.462;2023-08-20T00:40:19;16.23;;;13.02;;
9807;SDS011;4943;52.550;13.462;2023-08-20T00:42:47;15.00;;;13.05;;
9807;SDS011;4943;52.550;13.462;2023-08-20T00:45:16;14.93;;;13.43;;
9807;SDS011;4943;52.550;13.462;2023-08-20T00:47:44;13.38;;;11.98;;
9807;SDS011;4943;52.550;13.462;2023-08-20T00:50:13;14.60;;;13.20;;
9807;SDS011;4943;52.550;13.462;2023-08-20T00:52:42;17.25;;;13.48;;
9807;SDS011;4943;52.550;13.462;2023-08-20T00:55:11;12.70;;;11.40;;
9807;SDS011;4943;52.550;13.462;2023-08-20T00:57:39;13.93;;;12.52;;
9807;SDS011;4943;52.550;13.462;2023-08-20T01:00:08;19.88;;;13.25;;
9807;SDS011;4943;52.550;13.462;2023-08-20T01:02:38;13.55;;;11.85;;
9807;SDS011;4943;52.550;13.462;2023-08-20T01:05:07;13.85;;;12.30;;
9807;SDS011;4943;52.550;13.462;2023-08-20T01:07:52;14.23;;;12.73;;
9807;SDS011;4943;52.550;13.462;2023-08-20T01:10:31;12.95;;;11.63;;
9807;SDS011;4943;52.550;13.462;2023-08-20T01:13:07;13.48;;;12.13;;
9807;SDS011;4943;52.550;13.462;2023-08-20T01:15:35;12.77;;;11.50;;
9807;SDS011;4943;52.550;13.462;2023-08-20T01:18:03;13.00;;;11.68;;
9807;SDS011;4943;52.550;13.462;2023-08-20T01:20:33;12.27;;;11.07;;
9807;SDS011;4943;52.550;13.462;2023-08-20T01:23:28;15.05;;;12.07;;
9807;SDS011;4943;52.550;13.462;2023-08-20T01:26:24;11.88;;;10.68;;
9807;SDS011;4943;52.550;13.462;2023-08-20T01:29:09;12.38;;;11.10;;
9807;SDS011;4943;52.550;13.462;2023-08-20T01:31:38;13.25;;;11.85;;
9807;SDS011;4943;52.550;13.462;2023-08-20T01:34:08;16.42;;;14.65;;
9807;SDS011;4943;52.550;13.462;2023-08-20T01:36:36;14.32;;;12.20;;
9807;SDS011;4943;52.550;13.462;2023-08-20T01:39:05;17.70;;;12.43;;
9807;SDS011;4943;52.550;13.462;2023-08-20T01:41:34;12.82;;;10.18;;
9807;SDS011;4943;52.550;13.462;2023-08-20T01:44:02;15.15;;;11.90;;
9807;SDS011;4943;52.550;13.462;2023-08-20T01:46:31;12.98;;;11.68;;
9807;SDS011;4943;52.550;13.462;2023-08-20T01:49:00;13.15;;;11.82;;
9807;SDS011;4943;52.550;13.462;2023-08-20T01:51:28;19.38;;;11.90;;
9807;SDS011;4943;52.550;13.462;2023-08-20T01:53:56;12.57;;;11.27;;
9807;SDS011;4943;52.550;13.462;2023-08-20T01:56:24;14.68;;;11.82;;
9807;SDS011;4943;52.550;13.462;2023-08-20T01:58:52;13.32;;;11.40;;
9807;SDS011;4943;52.550;13.462;2023-08-20T02:01:20;12.75;;;11.45;;
9807;SDS011;4943;52.550;13.462;2023-08-20T02:03:49;13.85;;;12.38;;
9807;SDS011;4943;52.550;13.462;2023-08-20T02:06:17;17.05;;;15.25;;
9807;SDS011;4943;52.550;13.462;2023-08-20T02:08:45;17.23;;;11.32;;
9807;SDS011;4943;52.550;13.462;2023-08-20T02:11:13;13.25;;;11.38;;
9807;SDS011;4943;52.550;13.462;2023-08-20T02:13:41;16.05;;;11.50;;
9807;SDS011;4943;52.550;13.462;2023-08-20T02:16:09;12.68;;;11.30;;
9807;SDS011;4943;52.550;13.462;2023-08-20T02:18:37;13.50;;;11.45;;
9807;SDS011;4943;52.550;13.462;2023-08-20T02:21:07;13.38;;;11.40;;
9807;SDS011;4943;52.550;13.462;2023-08-20T02:23:35;14.77;;;11.77;;
9807;SDS011;4943;52.550;13.462;2023-08-20T02:26:03;14.73;;;11.73;;
9807;SDS011;4943;52.550;13.462;2023-08-20T02:28:31;16.00;;;11.50;;
9807;SDS011;4943;52.550;13.462;2023-08-20T02:30:59;16.38;;;11.88;;
9807;SDS011;4943;52.550;13.462;2023-08-20T02:33:31;12.95;;;10.88;;
9807;SDS011;4943;52.550;13.462;2023-08-20T02:36:00;12.23;;;11.05;;
9807;SDS011;4943;52.550;13.462;2023-08-20T02:38:30;14.43;;;12.38;;
9807;SDS011;4943;52.550;13.462;2023-08-20T02:40:58;13.80;;;11.73;;
9807;SDS011;4943;52.550;13.462;2023-08-20T02:43:26;15.90;;;12.75;;
9807;SDS011;4943;52.550;13.462;2023-08-20T02:45:54;14.60;;;12.52;;
9807;SDS011;4943;52.550;13.462;2023-08-20T02:48:22;13.10;;;11.65;;
9807;SDS011;4943;52.550;13.462;2023-08-20T02:50:53;15.80;;;11.85;;
9807;SDS011;4943;52.550;13.462;2023-08-20T02:53:21;13.85;;;12.38;;
9807;SDS011;4943;52.550;13.462;2023-08-20T02:55:51;13.93;;;12.43;;
9807;SDS011;4943;52.550;13.462;2023-08-20T02:58:19;15.20;;;11.73;;
9807;SDS011;4943;52.550;13.462;2023-08-20T03:00:47;12.63;;;11.25;;
9807;SDS011;4943;52.550;13.462;2023-08-20T03:03:15;15.50;;;12.23;;
9807;SDS011;4943;52.550;13.462;2023-08-20T03:05:43;12.85;;;11.52;;
9807;SDS011;4943;52.550;13.462;2023-08-20T03:08:11;12.73;;;11.45;;
9807;SDS011;4943;52.550;13.462;2023-08-20T03:10:39;13.98;;;11.93;;
9807;SDS011;4943;52.550;13.462;2023-08-20T03:13:08;17.55;;;14.02;;
9807;SDS011;4943;52.550;13.462;2023-08-20T03:15:36;16.27;;;12.52;;
9807;SDS011;4943;52.550;13.462;2023-08-20T03:18:05;13.57;;;11.60;;
9807;SDS011;4943;52.550;13.462;2023-08-20T03:20:33;13.07;;;11.68;;
9807;SDS011;4943;52.550;13.462;2023-08-20T03:23:01;13.65;;;12.25;;
9807;SDS011;4943;52.550;13.462;2023-08-20T03:25:29;16.23;;;12.02;;
9807;SDS011;4943;52.550;13.462;2023-08-20T03:27:57;14.45;;;11.77;;
9807;SDS011;4943;52.550;13.462;2023-08-20T03:30:26;14.55;;;11.75;;
9807;SDS011;4943;52.550;13.462;2023-08-20T03:32:54;14.93;;;11.82;;
9807;SDS011;4943;52.550;13.462;2023-08-20T03:35:23;12.63;;;11.13;;
9807;SDS011;4943;52.550;13.462;2023-08-20T03:37:50;11.98;;;10.85;;
9807;SDS011;4943;52.550;13.462;2023-08-20T03:40:18;15.38;;;12.18;;
9807;SDS011;4943;52.550;13.462;2023-08-20T03:42:46;13.73;;;11.07;;
9807;SDS011;4943;52.550;13.462;2023-08-20T03:45:14;13.10;;;11.70;;
9807;SDS011;4943;52.550;13.462;2023-08-20T03:47:44;12.23;;;11.00;;
9807;SDS011;4943;52.550;13.462;2023-08-20T03:50:13;13.90;;;11.18;;
9807;SDS011;4943;52.550;13.462;2023-08-20T03:52:41;17.00;;;12.32;;
9807;SDS011;4943;52.550;13.462;2023-08-20T03:55:09;13.13;;;11.50;;
9807;SDS011;4943;52.550;13.462;2023-08-20T03:57:37;14.73;;;11.40;;
9807;SDS011;4943;52.550;13.462;2023-08-20T04:00:05;13.57;;;11.02;;
9807;SDS011;4943;52.550;13.462;2023-08-20T04:02:36;13.35;;;12.02;;
9807;SDS011;4943;52.550;13.462;2023-08-20T04:05:05;12.10;;;10.80;;
9807;SDS011;4943;52.550;13.462;2023-08-20T04:07:33;13.05;;;11.75;;
9807;SDS011;4943;52.550;13.462;2023-08-20T04:10:02;17.77;;;11.77;;
9807;SDS011;4943;52.550;13.462;2023-08-20T04:12:31;12.98;;;10.85;;
9807;SDS011;4943;52.550;13.462;2023-08-20T04:14:59;12.40;;;11.15;;
9807;SDS011;4943;52.550;13.462;2023-08-20T04:17:27;12.40;;;11.02;;
9807;SDS011;4943;52.550;13.462;2023-08-20T04:19:55;12.38;;;10.60;;
9807;SDS011;4943;52.550;13.462;2023-08-20T04:22:25;14.07;;;10.73;;
9807;SDS011;4943;52.550;13.462;2023-08-20T04:24:55;13.73;;;12.15;;
9807;SDS011;4943;52.550;13.462;2023-08-20T04:27:22;13.48;;;11.45;;
9807;SDS011;4943;52.550;13.462;2023-08-20T04:29:50;14.63;;;11.88;;
9807;SDS011;4943;52.550;13.462;2023-08-20T04:32:19;13.02;;;11.65;;
9807;SDS011;4943;52.550;13.462;2023-08-20T04:34:47;15.13;;;12.10;;
9807;SDS011;4943;52.550;13.462;2023-08-20T04:37:18;14.10;;;11.82;;
9807;SDS011;4943;52.550;13.462;2023-08-20T04:39:47;15.20;;;11.32;;
9807;SDS011;4943;52.550;13.462;2023-08-20T04:42:15;14.00;;;12.40;;
9807;SDS011;4943;52.550;13.462;2023-08-20T04:44:43;14.63;;;12.30;;
9807;SDS011;4943;52.550;13.462;2023-08-20T04:47:11;14.95;;;11.35;;
9807;SDS011;4943;52.550;13.462;2023-08-20T04:49:39;14.35;;;11.23;;
9807;SDS011;4943;52.550;13.462;2023-08-20T04:52:09;15.70;;;11.52;;
9807;SDS011;4943;52.550;13.462;2023-08-20T04:54:37;15.48;;;11.82;;
9807;SDS011;4943;52.550;13.462;2023-08-20T04:57:06;14.32;;;11.77;;
9807;SDS011;4943;52.550;13.462;2023-08-20T04:59:34;14.45;;;12.55;;
9807;SDS011;4943;52.550;13.462;2023-08-20T05:02:02;13.30;;;11.85;;
9807;SDS011;4943;52.550;13.462;2023-08-20T05:04:30;13.60;;;11.52;;
9807;SDS011;4943;52.550;13.462;2023-08-20T05:07:00;13.27;;;11.15;;
9807;SDS011;4943;52.550;13.462;2023-08-20T05:09:29;14.18;;;12.13;;
9807;SDS011;4943;52.550;13.462;2023-08-20T05:11:57;14.43;;;11.50;;
9807;SDS011;4943;52.550;13.462;2023-08-20T05:14:26;13.82;;;12.35;;
9807;SDS011;4943;52.550;13.462;2023-08-20T05:16:54;13.15;;;11.48;;
9807;SDS011;4943;52.550;13.462;2023-08-20T05:19:23;14.15;;;12.40;;
9807;SDS011;4943;52.550;13.462;2023-08-20T05:21:51;14.70;;;12.65;;
9807;SDS011;4943;52.550;13.462;2023-08-20T05:24:22;15.65;;;12.90;;
9807;SDS011;4943;52.550;13.462;2023-08-20T05:29:32;13.88;;;12.38;;
9807;SDS011;4943;52.550;13.462;2023-08-20T05:32:01;17.42;;;13.40;;
9807;SDS011;4943;52.550;13.462;2023-08-20T05:34:28;17.73;;;13.32;;
9807;SDS011;4943;52.550;13.462;2023-08-20T05:36:56;14.65;;;13.02;;
9807;SDS011;4943;52.550;13.462;2023-08-20T05:39:24;19.45;;;13.98;;
9807;SDS011;4943;52.550;13.462;2023-08-20T05:41:53;16.42;;;14.13;;
9807;SDS011;4943;52.550;13.462;2023-08-20T05:44:21;14.57;;;12.52;;
9807;SDS011;4943;52.550;13.462;2023-08-20T05:46:50;15.63;;;12.68;;
9807;SDS011;4943;52.550;13.462;2023-08-20T05:49:18;19.27;;;13.15;;
9807;SDS011;4943;52.550;13.462;2023-08-20T05:51:46;14.50;;;12.82;;
9807;SDS011;4943;52.550;13.462;2023-08-20T05:54:14;16.98;;;13.25;;
9807;SDS011;4943;52.550;13.462;2023-08-20T05:56:42;20.77;;;13.80;;
9807;SDS011;4943;52.550;13.462;2023-08-20T05:59:10;18.35;;;13.48;;
9807;SDS011;4943;52.550;13.462;2023-08-20T06:01:38;17.00;;;13.88;;
9807;SDS011;4943;52.550;13.462;2023-08-20T06:04:07;15.35;;;12.02;;
9807;SDS011;4943;52.550;13.462;2023-08-20T06:06:35;15.25;;;12.50;;
9807;SDS011;4943;52.550;13.462;2023-08-20T06:09:03;13.93;;;12.40;;
9807;SDS011;4943;52.550;13.462;2023-08-20T06:11:35;14.93;;;12.38;;
9807;SDS011;4943;52.550;13.462;2023-08-20T06:14:03;13.15;;;11.75;;
9807;SDS011;4943;52.550;13.462;2023-08-20T06:16:31;16.95;;;12.40;;
9807;SDS011;4943;52.550;13.462;2023-08-20T06:18:59;15.00;;;12.88;;
9807;SDS011;4943;52.550;13.462;2023-08-20T06:21:31;15.02;;;12.45;;
9807;SDS011;4943;52.550;13.462;2023-08-20T06:23:59;15.57;;;12.45;;
9807;SDS011;4943;52.550;13.462;2023-08-20T06:26:28;14.55;;;12.82;;
9807;SDS011;4943;52.550;13.462;2023-08-20T06:28:56;12.57;;;11.23;;
9807;SDS011;4943;52.550;13.462;2023-08-20T06:31:25;13.73;;;12.27;;
9807;SDS011;4943;52.550;13.462;2023-08-20T06:33:52;14.50;;;11.35;;
9807;SDS011;4943;52.550;13.462;2023-08-20T06:36:21;13.90;;;12.38;;
9807;SDS011;4943;52.550;13.462;2023-08-20T06:38:50;14.43;;;11.85;;
9807;SDS011;4943;52.550;13.462;2023-08-20T06:41:18;15.23;;;11.52;;
9807;SDS011;4943;52.550;13.462;2023-08-20T06:43:46;14.45;;;11.95;;
9807;SDS011;4943;52.550;13.462;2023-08-20T06:46:14;16.25;;;12.13;;
9807;SDS011;4943;52.550;13.462;2023-08-20T06:48:42;12.43;;;11.13;;
9807;SDS011;4943;52.550;13.462;2023-08-20T06:51:11;15.65;;;11.48;;
9807;SDS011;4943;52.550;13.462;2023-08-20T06:53:39;13.52;;;11.43;;
9807;SDS011;4943;52.550;13.462;2023-08-20T06:56:08;12.80;;;11.18;;
9807;SDS011;4943;52.550;13.462;2023-08-20T06:58:37;12.27;;;11.07;;
9807;SDS011;4943;52.550;13.462;2023-08-20T07:01:06;12.63;;;11.32;;
9807;SDS011;4943;52.550;13.462;2023-08-20T07:03:35;13.43;;;11.13;;
9807;SDS011;4943;52.550;13.462;2023-08-20T07:06:04;13.05;;;10.77;;
9807;SDS011;4943;52.550;13.462;2023-08-20T07:08:34;12.32;;;11.02;;
9807;SDS011;4943;52.550;13.462;2023-08-20T07:11:02;13.13;;;10.73;;
9807;SDS011;4943;52.550;13.462;2023-08-20T07:13:31;13.60;;;11.50;;
9807;SDS011;4943;52.550;13.462;2023-08-20T07:16:00;16.33;;;11.68;;
9807;SDS011;4943;52.550;13.462;2023-08-20T07:18:28;13.15;;;10.52;;
9807;SDS011;4943;52.550;13.462;2023-08-20T07:20:56;14.80;;;11.18;;
9807;SDS011;4943;52.550;13.462;2023-08-20T07:23:24;13.48;;;11.45;;
9807;SDS011;4943;52.550;13.462;2023-08-20T07:26:03;16.00;;;11.63;;
9807;SDS011;4943;52.550;13.462;2023-08-20T07:28:33;13.55;;;11.00;;
9807;SDS011;4943;52.550;13.462;2023-08-20T07:31:18;13.82;;;12.13;;
9807;SDS011;4943;52.550;13.462;2023-08-20T07:33:46;12.52;;;11.00;;
9807;SDS011;4943;52.550;13.462;2023-08-20T07:36:15;12.48;;;10.18;;
9807;SDS011;4943;52.550;13.462;2023-08-20T07:38:43;14.85;;;11.38;;
9807;SDS011;4943;52.550;13.462;2023-08-20T07:41:11;16.27;;;11.02;;
9807;SDS011;4943;52.550;13.462;2023-08-20T07:43:41;12.05;;;10.70;;
9807;SDS011;4943;52.550;13.462;2023-08-20T07:46:09;13.23;;;10.93;;
9807;SDS011;4943;52.550;13.462;2023-08-20T07:48:37;13.38;;;11.27;;
9807;SDS011;4943;52.550;13.462;2023-08-20T07:51:06;14.30;;;11.48;;
9807;SDS011;4943;52.550;13.462;2023-08-20T07:53:34;17.67;;;15.93;;
9807;SDS011;4943;52.550;13.462;2023-08-20T07:56:02;21.92;;;19.60;;
9807;SDS011;4943;52.550;13.462;2023-08-20T07:58:30;21.80;;;19.55;;
9807;SDS011;4943;52.550;13.462;2023-08-20T08:01:00;14.35;;;12.80;;
9807;SDS011;4943;52.550;13.462;2023-08-20T08:03:28;14.38;;;11.32;;
9807;SDS011;4943;52.550;13.462;2023-08-20T08:05:56;11.93;;;10.70;;
9807;SDS011;4943;52.550;13.462;2023-08-20T08:08:24;26.92;;;24.17;;
9807;SDS011;4943;52.550;13.462;2023-08-20T08:10:52;23.17;;;20.67;;
9807;SDS011;4943;52.550;13.462;2023-08-20T08:13:21;14.18;;;11.07;;
9807;SDS011;4943;52.550;13.462;2023-08-20T08:15:50;13.98;;;11.57;;
9807;SDS011;4943;52.550;13.462;2023-08-20T08:18:20;13.32;;;11.20;;
9807;SDS011;4943;52.550;13.462;2023-08-20T08:20:48;13.75;;;11.13;;
9807;SDS011;4943;52.550;13.462;2023-08-20T08:23:16;14.27;;;11.90;;
9807;SDS011;4943;52.550;13.462;2023-08-20T08:25:44;13.07;;;10.38;;
9807;SDS011;4943;52.550;13.462;2023-08-20T08:28:12;13.88;;;11.52;;
9807;SDS011;4943;52.550;13.462;2023-08-20T08:30:40;13.13;;;10.82;;
9807;SDS011;4943;52.550;13.462;2023-08-20T08:33:08;15.77;;;11.27;;
9807;SDS011;4943;52.550;13.462;2023-08-20T08:35:38;14.45;;;11.85;;
9807;SDS011;4943;52.550;13.462;2023-08-20T08:38:06;14.50;;;10.63;;
9807;SDS011;4943;52.550;13.462;2023-08-20T08:40:34;14.50;;;10.38;;
9807;SDS011;4943;52.550;13.462;2023-08-20T08:43:02;11.23;;;10.13;;
9807;SDS011;4943;52.550;13.462;2023-08-20T08:45:31;17.63;;;11.38;;
9807;SDS011;4943;52.550;13.462;2023-08-20T08:48:01;11.23;;;9.98;;
9807;SDS011;4943;52.550;13.462;2023-08-20T08:50:30;10.73;;;9.63;;
9807;SDS011;4943;52.550;13.462;2023-08-20T08:53:00;10.82;;;9.57;;
9807;SDS011;4943;52.550;13.462;2023-08-20T08:55:29;11.52;;;8.63;;
9807;SDS011;4943;52.550;13.462;2023-08-20T08:57:57;12.02;;;9.32;;
9807;SDS011;4943;52.550;13.462;2023-08-20T09:00:25;10.15;;;9.07;;
9807;SDS011;4943;52.550;13.462;2023-08-20T09:02:53;12.30;;;9.30;;
9807;SDS011;4943;52.550;13.462;2023-08-20T09:05:21;12.05;;;10.13;;
9807;SDS011;4943;52.550;13.462;2023-08-20T09:07:50;9.95;;;8.50;;
9807;SDS011;4943;52.550;13.462;2023-08-20T09:10:26;11.80;;;9.20;;
9807;SDS011;4943;52.550;13.462;2023-08-20T09:12:54;10.18;;;8.52;;
9807;SDS011;4943;52.550;13.462;2023-08-20T09:15:30;9.48;;;8.48;;
9807;SDS011;4943;52.550;13.462;2023-08-20T09:18:01;17.23;;;13.75;;
9807;SDS011;4943;52.550;13.462;2023-08-20T09:20:33;15.95;;;14.45;;
9807;SDS011;4943;52.550;13.462;2023-08-20T09:23:02;9.48;;;8.32;;
9807;SDS011;4943;52.550;13.462;2023-08-20T09:25:31;8.90;;;8.00;;
9807;SDS011;4943;52.550;13.462;2023-08-20T09:28:02;11.85;;;9.07;;
9807;SDS011;4943;52.550;13.462;2023-08-20T09:30:30;9.25;;;8.10;;
9807;SDS011;4943;52.550;13.462;2023-08-20T09:33:02;10.65;;;8.27;;
9807;SDS011;4943;52.550;13.462;2023-08-20T09:35:32;10.50;;;8.82;;
9807;SDS011;4943;52.550;13.462;2023-08-20T09:38:00;10.63;;;9.00;;
9807;SDS011;4943;52.550;13.462;2023-08-20T09:40:29;13.88;;;9.48;;
9807;SDS011;4943;52.550;13.462;2023-08-20T09:42:59;11.13;;;8.90;;
9807;SDS011;4943;52.550;13.462;2023-08-20T09:45:28;13.77;;;8.82;;
9807;SDS011;4943;52.550;13.462;2023-08-20T09:47:56;11.15;;;8.30;;
9807;SDS011;4943;52.550;13.462;2023-08-20T09:50:27;14.05;;;8.60;;
9807;SDS011;4943;52.550;13.462;2023-08-20T09:53:05;7.00;;;6.30;;
9807;SDS011;4943;52.550;13.462;2023-08-20T09:55:39;9.93;;;7.10;;
9807;SDS011;4943;52.550;13.462;2023-08-20T09:58:10;7.20;;;6.50;;
9807;SDS011;4943;52.550;13.462;2023-08-20T10:00:39;8.60;;;6.63;;
9807;SDS011;4943;52.550;13.462;2023-08-20T10:03:07;7.10;;;6.40;;
9807;SDS011;4943;52.550;13.462;2023-08-20T10:05:36;9.68;;;6.32;;
9807;SDS011;4943;52.550;13.462;2023-08-20T10:08:05;10.80;;;6.30;;
9807;SDS011;4943;52.550;13.462;2023-08-20T10:10:34;7.30;;;6.60;;
9807;SDS011;4943;52.550;13.462;2023-08-20T10:13:03;7.70;;;6.90;;
9807;SDS011;4943;52.550;13.462;2023-08-20T10:15:32;7.40;;;5.65;;
9807;SDS011;4943;52.550;13.462;2023-08-20T10:18:07;6.28;;;5.25;;
9807;SDS011;4943;52.550;13.462;2023-08-20T10:20:35;6.95;;;5.75;;
9807;SDS011;4943;52.550;13.462;2023-08-20T10:23:06;7.38;;;5.25;;
9807;SDS011;4943;52.550;13.462;2023-08-20T10:25:40;6.65;;;4.97;;
9807;SDS011;4943;52.550;13.462;2023-08-20T10:28:11;5.05;;;4.32;;
9807;SDS011;4943;52.550;13.462;2023-08-20T10:33:34;6.38;;;4.13;;
9807;SDS011;4943;52.550;13.462;2023-08-20T10:36:06;4.70;;;3.78;;
9807;SDS011;4943;52.550;13.462;2023-08-20T10:38:36;6.38;;;4.53;;
9807;SDS011;4943;52.550;13.462;2023-08-20T10:41:05;4.43;;;3.50;;
9807;SDS011;4943;52.550;13.462;2023-08-20T10:43:35;4.50;;;3.47;;
9807;SDS011;4943;52.550;13.462;2023-08-20T10:46:06;5.03;;;3.08;;
9807;SDS011;4943;52.550;13.462;2023-08-20T10:48:36;4.45;;;3.42;;
9807;SDS011;4943;52.550;13.462;2023-08-20T10:51:06;4.53;;;3.58;;
9807;SDS011;4943;52.550;13.462;2023-08-20T10:53:36;5.07;;;3.35;;
9807;SDS011;4943;52.550;13.462;2023-08-20T10:56:07;4.00;;;3.17;;
9807;SDS011;4943;52.550;13.462;2023-08-20T10:58:38;863.53;;;807.70;;
9807;SDS011;4943;52.550;13.462;2023-08-20T11:01:15;816.58;;;762.42;;
9807;SDS011;4943;52.550;13.462;2023-08-20T11:03:48;796.20;;;742.80;;
9807;SDS011;4943;52.550;13.462;2023-08-20T11:06:17;791.25;;;738.03;;
9807;SDS011;4943;52.550;13.462;2023-08-20T11:08:46;760.17;;;708.42;;
9807;SDS011;4943;52.550;13.462;2023-08-20T11:11:14;729.45;;;678.97;;
9807;SDS011;4943;52.550;13.462;2023-08-20T11:13:44;726.00;;;675.58;;
9807;SDS011;4943;52.550;13.462;2023-08-20T11:16:12;724.13;;;673.78;;
9807;SDS011;4943;52.550;13.462;2023-08-20T11:18:42;718.92;;;668.80;;
9807;SDS011;4943;52.550;13.462;2023-08-20T11:21:10;707.90;;;658.35;;
9807;SDS011;4943;52.550;13.462;2023-08-20T11:23:39;702.85;;;653.28;;
9807;SDS011;4943;52.550;13.462;2023-08-20T11:26:09;702.85;;;653.60;;
9807;SDS011;4943;52.550;13.462;2023-08-20T11:28:37;709.83;;;660.15;;
9807;SDS011;4943;52.550;13.462;2023-08-20T11:31:05;701.05;;;651.78;;
9807;SDS011;4943;52.550;13.462;2023-08-20T11:33:34;709.47;;;659.78;;
9807;SDS011;4943;52.550;13.462;2023-08-20T11:36:04;703.13;;;653.53;;
9807;SDS011;4943;52.550;13.462;2023-08-20T11:38:33;719.15;;;669.30;;
9807;SDS011;4943;52.550;13.462;2023-08-20T11:41:01;708.75;;;659.15;;
9807;SDS011;4943;52.550;13.462;2023-08-20T11:43:29;711.45;;;661.45;;
9807;SDS011;4943;52.550;13.462;2023-08-20T11:45:57;710.53;;;660.78;;
9807;SDS011;4943;52.550;13.462;2023-08-20T11:48:26;699.42;;;650.13;;
9807;SDS011;4943;52.550;13.462;2023-08-20T11:50:56;702.65;;;653.47;;
9807;SDS011;4943;52.550;13.462;2023-08-20T11:53:26;698.03;;;649.05;;
9807;SDS011;4943;52.550;13.462;2023-08-20T11:55:56;715.90;;;666.35;;
9807;SDS011;4943;52.550;13.462;2023-08-20T11:58:24;681.20;;;632.33;;
9807;SDS011;4943;52.550;13.462;2023-08-20T12:00:52;681.05;;;632.67;;
9807;SDS011;4943;52.550;13.462;2023-08-20T12:03:20;666.20;;;618.28;;
9807;SDS011;4943;52.550;13.462;2023-08-20T12:05:48;683.25;;;634.92;;
9807;SDS011;4943;52.550;13.462;2023-08-20T12:08:16;683.95;;;635.47;;
9807;SDS011;4943;52.550;13.462;2023-08-20T12:10:46;675.25;;;627.35;;
9807;SDS011;4943;52.550;13.462;2023-08-20T12:13:14;667.85;;;619.85;;
9807;SDS011;4943;52.550;13.462;2023-08-20T12:15:42;665.40;;;617.47;;
9807;SDS011;4943;52.550;13.462;2023-08-20T12:18:10;677.38;;;629.28;;
9807;SDS011;4943;52.550;13.462;2023-08-20T12:20:38;671.38;;;623.47;;
9807;SDS011;4943;52.550;13.462;2023-08-20T12:23:06;665.80;;;618.38;;
9807;SDS011;4943;52.550;13.462;2023-08-20T12:25:35;661.53;;;614.03;;
9807;SDS011;4943;52.550;13.462;2023-08-20T12:28:05;661.47;;;614.00;;
9807;SDS011;4943;52.550;13.462;2023-08-20T12:30:33;664.97;;;616.83;;
9807;SDS011;4943;52.550;13.462;2023-08-20T12:33:04;657.28;;;609.80;;
9807;SDS011;4943;52.550;13.462;2023-08-20T12:35:33;671.03;;;623.53;;
9807;SDS011;4943;52.550;13.462;2023-08-20T12:38:01;647.30;;;600.55;;
9807;SDS011;4943;52.550;13.462;2023-08-20T12:40:30;671.85;;;624.22;;
9807;SDS011;4943;52.550;13.462;2023-08-20T12:42:58;664.05;;;616.65;;
9807;SDS011;4943;52.550;13.462;2023-08-20T12:45:27;660.72;;;613.63;;
9807;SDS011;4943;52.550;13.462;2023-08-20T12:47:55;664.33;;;616.67;;
9807;SDS011;4943;52.550;13.462;2023-08-20T12:50:27;635.67;;;589.10;;
9807;SDS011;4943;52.550;13.462;2023-08-20T12:52:55;660.72;;;613.55;;
9807;SDS011;4943;52.550;13.462;2023-08-20T12:55:23;693.47;;;645.05;;
9807;SDS011;4943;52.550;13.462;2023-08-20T12:57:52;691.90;;;643.65;;
9807;SDS011;4943;52.550;13.462;2023-08-20T13:00:21;660.10;;;613.03;;
9807;SDS011;4943;52.550;13.462;2023-08-20T13:02:53;669.88;;;622.33;;
9807;SDS011;4943;52.550;13.462;2023-08-20T13:05:22;666.45;;;618.92;;
9807;SDS011;4943;52.550;13.462;2023-08-20T13:07:51;695.20;;;646.55;;
9807;SDS011;4943;52.550;13.462;2023-08-20T13:10:20;694.00;;;645.72;;
9807;SDS011;4943;52.550;13.462;2023-08-20T13:12:51;672.58;;;624.45;;
9807;SDS011;4943;52.550;13.462;2023-08-20T13:15:21;688.78;;;638.22;;
9807;SDS011;4943;52.550;13.462;2023-08-20T13:17:53;681.88;;;633.45;;
9807;SDS011;4943;52.550;13.462;2023-08-20T13:20:21;680.67;;;633.00;;
9807;SDS011;4943;52.550;13.462;2023-08-20T13:22:51;681.50;;;633.80;;
9807;SDS011;4943;52.550;13.462;2023-08-20T13:25:19;677.00;;;629.50;;
9807;SDS011;4943;52.550;13.462;2023-08-20T13:27:48;667.10;;;619.83;;
9807;SDS011;4943;52.550;13.462;2023-08-20T13:30:16;670.95;;;623.67;;
9807;SDS011;4943;52.550;13.462;2023-08-20T13:32:45;675.38;;;628.00;;
9807;SDS011;4943;52.550;13.462;2023-08-20T13:35:15;663.00;;;615.97;;
9807;SDS011;4943;52.550;13.462;2023-08-20T13:37:43;668.75;;;621.70;;
9807;SDS011;4943;52.550;13.462;2023-08-20T13:40:11;663.42;;;616.45;;
9807;SDS011;4943;52.550;13.462;2023-08-20T13:42:39;686.22;;;638.20;;
9807;SDS011;4943;52.550;13.462;2023-08-20T13:45:07;685.20;;;637.45;;
9807;SDS011;4943;52.550;13.462;2023-08-20T13:47:36;681.88;;;634.50;;
9807;SDS011;4943;52.550;13.462;2023-08-20T13:50:04;682.33;;;634.78;;
9807;SDS011;4943;52.550;13.462;2023-08-20T13:52:34;684.22;;;636.80;;
9807;SDS011;4943;52.550;13.462;2023-08-20T13:55:02;696.40;;;648.47;;
9807;SDS011;4943;52.550;13.462;2023-08-20T13:57:31;702.03;;;654.00;;
9807;SDS011;4943;52.550;13.462;2023-08-20T13:59:58;698.97;;;649.70;;
9807;SDS011;4943;52.550;13.462;2023-08-20T14:02:26;709.38;;;661.25;;
9807;SDS011;4943;52.550;13.462;2023-08-20T14:04:55;706.03;;;658.00;;
9807;SDS011;4943;52.550;13.462;2023-08-20T14:07:23;700.28;;;652.53;;
9807;SDS011;4943;52.550;13.462;2023-08-20T14:09:52;721.63;;;673.10;;
9807;SDS011;4943;52.550;13.462;2023-08-20T14:12:20;731.15;;;682.25;;
9807;SDS011;4943;52.550;13.462;2023-08-20T14:14:48;729.10;;;680.35;;
9807;SDS011;4943;52.550;13.462;2023-08-20T14:17:16;734.95;;;686.10;;
9807;SDS011;4943;52.550;13.462;2023-08-20T14:19:44;719.40;;;671.20;;
9807;SDS011;4943;52.550;13.462;2023-08-20T14:22:12;742.10;;;692.83;;
9807;SDS011;4943;52.550;13.462;2023-08-20T14:24:40;742.47;;;693.25;;
9807;SDS011;4943;52.550;13.462;2023-08-20T14:27:09;723.60;;;675.00;;
9807;SDS011;4943;52.550;13.462;2023-08-20T14:29:37;746.05;;;696.70;;
9807;SDS011;4943;52.550;13.462;2023-08-20T14:32:05;749.20;;;699.92;;
9807;SDS011;4943;52.550;13.462;2023-08-20T14:34:33;737.88;;;689.25;;
9807;SDS011;4943;52.550;13.462;2023-08-20T14:37:02;747.03;;;697.80;;
9807;SDS011;4943;52.550;13.462;2023-08-20T14:39:30;751.00;;;701.63;;
9807;SDS011;4943;52.550;13.462;2023-08-20T14:41:59;753.45;;;703.88;;
9807;SDS011;4943;52.550;13.462;2023-08-20T14:44:30;754.97;;;705.50;;
9807;SDS011;4943;52.550;13.462;2023-08-20T14:46:58;757.47;;;708.00;;